Time;durP1;ratioP1;P1;durP2;ratioP2;P2;SDS_P1;SDS_P2;PMS_P1;PMS_P2;Temp;Humidity;BMP_temperature;BMP_pressure;BME280_temperature;BME280_humidity;BME280_pressure;Samples;Min_cycle;Max_cycle;Signal;HPM_P1;HPM_P2
2021/03/25 00:01:54;;;;;;;82.70;34.15;;;9.90;56.80;;;;;;4895450;28;20039;-61
2021/03/25 00:04:24;;;;;;;80.82;34.05;;;9.90;56.90;;;;;;4902651;28;20063;-62
2021/03/25 00:06:55;;;;;;;93.05;36.00;;;9.80;56.90;;;;;;4898054;28;20050;-62
2021/03/25 00:09:31;;;;;;;105.68;37.72;;;9.80;57.00;;;;;;4899023;28;20055;-62
2021/03/25 00:11:58;;;;;;;98.28;37.35;;;9.80;57.20;;;;;;4901219;28;20032;-62
2021/03/25 00:14:25;;;;;;;94.22;37.35;;;9.70;57.40;;;;;;4908531;28;20800;-62
2021/03/25 00:16:52;;;;;;;93.18;37.58;;;9.80;57.60;;;;;;4897591;28;20268;-62
2021/03/25 00:19:19;;;;;;;85.95;36.35;;;9.80;57.60;;;;;;4897373;28;20046;-62
2021/03/25 00:21:45;;;;;;;83.28;34.40;;;9.80;57.60;;;;;;4895524;28;20039;-62
2021/03/25 00:24:13;;;;;;;76.82;34.13;;;9.80;57.60;;;;;;4897693;28;20298;-61
2021/03/25 00:26:41;;;;;;;82.15;33.25;;;9.80;57.50;;;;;;4895800;28;20066;-62
2021/03/25 00:29:12;;;;;;;86.38;35.95;;;9.70;57.40;;;;;;4897100;28;20041;-62
2021/03/25 00:31:39;;;;;;;85.93;35.90;;;9.70;57.40;;;;;;4903496;28;20039;-62
2021/03/25 00:34:05;;;;;;;85.30;36.75;;;9.60;57.30;;;;;;4898080;28;20047;-62
2021/03/25 00:36:31;;;;;;;91.93;36.40;;;9.60;57.40;;;;;;4892067;28;21105;-62
2021/03/25 00:38:58;;;;;;;94.82;37.35;;;9.60;57.50;;;;;;4897041;28;20055;-62
2021/03/25 00:41:27;;;;;;;101.22;39.38;;;9.50;57.60;;;;;;4900307;28;20047;-62
2021/03/25 00:43:56;;;;;;;85.03;35.10;;;9.50;57.70;;;;;;4898174;28;20044;-60
2021/03/25 00:46:21;;;;;;;87.30;35.20;;;9.50;57.70;;;;;;4899549;28;20079;-62
2021/03/25 00:48:47;;;;;;;96.50;36.28;;;9.50;57.70;;;;;;4903010;28;20562;-61
2021/03/25 00:51:13;;;;;;;94.25;36.83;;;9.40;57.60;;;;;;4902242;28;20434;-62
2021/03/25 00:53:41;;;;;;;101.78;38.70;;;9.40;57.70;;;;;;4904886;28;20098;-62
2021/03/25 00:56:08;;;;;;;96.43;37.92;;;9.30;57.80;;;;;;4897987;28;20207;-61
2021/03/25 00:58:36;;;;;;;104.00;38.90;;;9.30;57.90;;;;;;4892514;28;20051;-61
2021/03/25 01:01:07;;;;;;;100.65;40.25;;;9.30;58.10;;;;;;4912869;28;23813;-62
2021/03/25 01:03:37;;;;;;;93.47;39.33;;;9.30;58.30;;;;;;4913299;28;20050;-61
2021/03/25 01:06:05;;;;;;;101.97;39.92;;;9.30;58.40;;;;;;4896738;28;20182;-62
2021/03/25 01:08:35;;;;;;;87.28;36.67;;;9.30;58.40;;;;;;4896008;28;20039;-62
2021/03/25 01:11:07;;;;;;;101.90;40.05;;;9.30;58.40;;;;;;4893284;28;20825;-62
2021/03/25 01:13:45;;;;;;;91.30;37.50;;;9.30;58.50;;;;;;4897261;28;20614;-61
2021/03/25 01:16:24;;;;;;;100.22;36.70;;;9.30;58.50;;;;;;4898471;28;20221;-62
2021/03/25 01:18:52;;;;;;;98.90;38.42;;;9.30;58.50;;;;;;4895848;28;20063;-62
2021/03/25 01:21:20;;;;;;;102.85;40.17;;;9.30;58.50;;;;;;4895723;28;20039;-63
2021/03/25 01:23:48;;;;;;;97.25;39.35;;;9.30;58.70;;;;;;4901183;28;20090;-62
2021/03/25 01:26:14;;;;;;;116.43;43.88;;;9.40;58.90;;;;;;4898603;28;20081;-61
2021/03/25 01:28:42;;;;;;;89.00;35.40;;;9.40;58.90;;;;;;4898811;28;20067;-62
2021/03/25 01:31:08;;;;;;;97.55;36.88;;;9.50;58.90;;;;;;4898391;28;20046;-62
2021/03/25 01:33:33;;;;;;;97.32;37.78;;;9.40;58.70;;;;;;4900410;28;20063;-61
2021/03/25 01:36:01;;;;;;;86.35;36.42;;;9.50;58.60;;;;;;4896580;28;20039;-62
2021/03/25 01:38:27;;;;;;;84.90;33.80;;;9.40;58.50;;;;;;4893613;28;20054;-62
2021/03/25 01:40:56;;;;;;;89.50;36.08;;;9.40;58.40;;;;;;4898911;28;20492;-62
2021/03/25 01:43:27;;;;;;;83.25;34.42;;;9.30;58.40;;;;;;4895018;28;20181;-62
2021/03/25 01:45:57;;;;;;;86.70;35.85;;;9.30;58.40;;;;;;4897470;28;20039;-62
2021/03/25 01:48:33;;;;;;;97.05;37.90;;;9.20;58.40;;;;;;4900276;28;20043;-63
2021/03/25 01:51:24;;;;;;;93.20;36.13;;;9.20;58.40;;;;;;4895940;28;20102;-62
2021/03/25 01:53:53;;;;;;;89.32;35.15;;;9.20;58.50;;;;;;4885064;28;20844;-62
2021/03/25 01:56:57;;;;;;;95.88;37.13;;;9.10;58.40;;;;;;4894533;28;20074;-61
2021/03/25 01:59:40;;;;;;;92.70;37.10;;;9.10;58.50;;;;;;4852754;28;21272;-63
2021/03/25 02:02:49;;;;;;;90.95;35.85;;;9.10;58.50;;;;;;4905368;28;20047;-62
2021/03/25 02:05:48;;;;;;;93.90;34.97;;;9.00;58.60;;;;;;4895644;28;20036;-62
2021/03/25 02:08:32;;;;;;;93.88;37.20;;;9.00;58.60;;;;;;4924602;28;20082;-62
2021/03/25 02:11:19;;;;;;;91.88;36.17;;;9.00;58.60;;;;;;4930004;28;20108;-62
2021/03/25 02:14:12;;;;;;;98.07;37.15;;;8.90;58.70;;;;;;4919337;28;20038;-61
2021/03/25 02:16:44;;;;;;;111.72;39.03;;;8.90;58.80;;;;;;4928383;28;20035;-62
2021/03/25 02:20:00;;;;;;;100.88;37.90;;;8.90;59.00;;;;;;4942123;28;20053;-61
2021/03/25 02:22:57;;;;;;;100.20;38.13;;;8.90;59.10;;;;;;4894986;28;20059;-62
2021/03/25 02:26:12;;;;;;;106.93;39.67;;;8.90;59.10;;;;;;4926661;28;20042;-62
2021/03/25 02:28:52;;;;;;;92.38;35.28;;;9.00;59.40;;;;;;4921382;28;20099;-62
2021/03/25 02:31:22;;;;;;;80.45;32.60;;;9.00;59.50;;;;;;4926948;28;20413;-62
2021/03/25 02:33:52;;;;;;;89.03;34.65;;;9.00;59.20;;;;;;4931314;28;20114;-62
2021/03/25 02:36:26;;;;;;;89.53;35.60;;;8.90;58.90;;;;;;4930633;28;20126;-62
2021/03/25 02:38:59;;;;;;;99.53;38.05;;;8.90;59.00;;;;;;4923170;28;20118;-62
2021/03/25 02:41:31;;;;;;;90.80;37.97;;;8.90;59.10;;;;;;4921719;28;20047;-61
2021/03/25 02:43:59;;;;;;;103.40;37.83;;;8.90;59.30;;;;;;4922168;28;20039;-62
2021/03/25 02:46:35;;;;;;;102.57;39.35;;;8.90;59.40;;;;;;4909598;28;20637;-62
2021/03/25 02:49:05;;;;;;;97.75;39.63;;;9.00;59.70;;;;;;4901571;28;23791;-61
2021/03/25 02:51:39;;;;;;;106.35;38.88;;;9.00;59.70;;;;;;4902889;28;20059;-61
2021/03/25 02:54:06;;;;;;;99.10;38.42;;;9.10;59.90;;;;;;4905727;28;20221;-62
2021/03/25 02:56:49;;;;;;;111.72;40.22;;;9.10;59.90;;;;;;4899731;28;20217;-62
2021/03/25 02:59:31;;;;;;;95.68;38.08;;;9.20;60.00;;;;;;4899243;28;20095;-62
2021/03/25 03:02:22;;;;;;;78.80;34.45;;;9.30;59.90;;;;;;4896038;28;20569;-62
2021/03/25 03:04:52;;;;;;;83.30;33.35;;;9.30;59.80;;;;;;4899140;28;20555;-62
2021/03/25 03:07:26;;;;;;;91.80;33.95;;;9.30;59.50;;;;;;4900584;28;20842;-62
2021/03/25 03:09:58;;;;;;;88.00;34.58;;;9.20;59.30;;;;;;4901708;28;20102;-62
2021/03/25 03:12:36;;;;;;;106.63;36.60;;;9.20;59.20;;;;;;4900496;28;20499;-63
2021/03/25 03:15:08;;;;;;;92.85;35.15;;;9.20;59.30;;;;;;4899370;28;21479;-62
2021/03/25 03:17:52;;;;;;;95.50;37.85;;;9.10;59.40;;;;;;4904156;28;20036;-62
2021/03/25 03:20:38;;;;;;;95.20;36.38;;;9.20;59.50;;;;;;4905653;28;20103;-62
2021/03/25 03:23:04;;;;;;;99.95;37.40;;;9.10;59.60;;;;;;4903088;28;20067;-62
2021/03/25 03:25:32;;;;;;;99.47;38.33;;;9.10;59.70;;;;;;4898723;28;20216;-63
2021/03/25 03:28:20;;;;;;;82.35;35.38;;;9.10;59.70;;;;;;4897602;28;20043;-63
2021/03/25 03:31:02;;;;;;;102.20;38.60;;;9.20;59.80;;;;;;4894991;28;20090;-62
2021/03/25 03:33:27;;;;;;;87.85;34.90;;;9.20;59.80;;;;;;4891211;28;20229;-62
2021/03/25 03:36:00;;;;;;;76.95;31.52;;;9.20;59.70;;;;;;4891014;28;20596;-62
2021/03/25 03:38:36;;;;;;;87.88;34.17;;;9.20;59.60;;;;;;4895819;28;20047;-62
2021/03/25 03:41:07;;;;;;;91.15;34.30;;;9.20;59.50;;;;;;4893012;28;20046;-63
2021/03/25 03:43:37;;;;;;;92.53;34.65;;;9.10;59.40;;;;;;4901826;28;20043;-62
2021/03/25 03:46:06;;;;;;;92.47;35.80;;;9.10;59.40;;;;;;4901745;28;20185;-63
2021/03/25 03:48:40;;;;;;;100.78;36.60;;;9.10;59.50;;;;;;4899727;28;20564;-63
2021/03/25 03:51:10;;;;;;;90.68;34.90;;;9.10;59.60;;;;;;4898225;28;20524;-62
2021/03/25 03:53:37;;;;;;;84.35;34.03;;;9.00;59.50;;;;;;4898922;28;20126;-62
2021/03/25 03:56:23;;;;;;;81.05;33.72;;;9.00;59.50;;;;;;4900452;28;20036;-62
2021/03/25 03:58:56;;;;;;;86.78;32.05;;;8.90;59.40;;;;;;4896818;28;20135;-62
2021/03/25 04:01:32;;;;;;;116.22;38.05;;;8.90;59.40;;;;;;4898131;28;20509;-61
2021/03/25 04:04:02;;;;;;;100.65;37.38;;;8.80;59.60;;;;;;4899142;28;20262;-62
2021/03/25 04:06:48;;;;;;;115.07;40.78;;;8.80;59.80;;;;;;4903137;28;20039;-62
2021/03/25 04:09:20;;;;;;;112.38;38.60;;;8.80;60.00;;;;;;4914212;28;20058;-62
2021/03/25 04:11:53;;;;;;;105.45;40.03;;;8.90;60.20;;;;;;4897583;28;21215;-63
2021/03/25 04:14:27;;;;;;;105.70;37.85;;;8.90;60.20;;;;;;4895225;28;21087;-61
2021/03/25 04:16:57;;;;;;;102.18;35.17;;;9.00;60.20;;;;;;4897861;28;20067;-62
2021/03/25 04:19:27;;;;;;;89.32;35.15;;;9.00;60.00;;;;;;4892935;28;20454;-62
2021/03/25 04:21:59;;;;;;;76.03;31.48;;;8.90;59.70;;;;;;4918933;28;20501;-62
2021/03/25 04:24:28;;;;;;;76.20;31.90;;;8.90;59.60;;;;;;4929580;28;20044;-62
2021/03/25 04:27:06;;;;;;;87.15;34.70;;;8.80;59.60;;;;;;4922144;28;20359;-62
2021/03/25 04:29:39;;;;;;;86.75;34.35;;;8.70;59.50;;;;;;4922507;28;20043;-62
2021/03/25 04:32:05;;;;;;;95.95;36.92;;;8.70;59.50;;;;;;4920844;28;20518;-62
2021/03/25 04:34:32;;;;;;;99.90;36.83;;;8.60;59.50;;;;;;4922799;28;20094;-62
2021/03/25 04:36:58;;;;;;;105.82;40.42;;;8.60;59.60;;;;;;4922204;28;20039;-63
2021/03/25 04:39:27;;;;;;;109.07;38.70;;;8.60;59.70;;;;;;4918888;28;20082;-64
2021/03/25 04:41:55;;;;;;;91.60;35.15;;;8.60;59.70;;;;;;4924852;28;20170;-62
2021/03/25 04:44:44;;;;;;;107.03;38.47;;;8.50;59.60;;;;;;4923123;28;20507;-62
2021/03/25 04:47:25;;;;;;;99.28;36.63;;;8.50;59.60;;;;;;4903048;28;20040;-62
2021/03/25 04:49:53;;;;;;;91.50;37.25;;;8.40;59.70;;;;;;4901449;28;22440;-62
2021/03/25 04:52:26;;;;;;;94.68;34.50;;;8.40;59.80;;;;;;4903873;28;20068;-62
2021/03/25 04:54:52;;;;;;;104.00;36.97;;;8.40;59.70;;;;;;4901400;28;20237;-62
2021/03/25 04:57:27;;;;;;;96.97;34.97;;;8.30;59.60;;;;;;4901625;28;20359;-62
2021/03/25 04:59:57;;;;;;;99.07;36.67;;;8.30;59.80;;;;;;4900693;28;20053;-63
2021/03/25 05:02:23;;;;;;;97.20;36.90;;;8.30;59.70;;;;;;4911315;28;20067;-62
2021/03/25 05:04:54;;;;;;;103.75;36.85;;;8.20;59.60;;;;;;4895826;28;20215;-62
2021/03/25 05:07:28;;;;;;;94.75;35.67;;;8.20;59.60;;;;;;4895786;28;20512;-62
2021/03/25 05:09:56;;;;;;;93.60;36.50;;;8.20;59.60;;;;;;4915188;28;20046;-63
2021/03/25 05:12:25;;;;;;;89.22;35.45;;;8.10;59.70;;;;;;4896365;28;20336;-62
2021/03/25 05:15:04;;;;;;;97.35;34.63;;;8.10;59.80;;;;;;4905117;28;20047;-63
2021/03/25 05:17:36;;;;;;;84.78;32.72;;;8.10;59.80;;;;;;4908165;28;20182;-62
2021/03/25 05:20:23;;;;;;;99.03;35.63;;;8.10;59.80;;;;;;4899532;28;20089;-62
2021/03/25 05:22:57;;;;;;;111.70;37.80;;;8.00;59.60;;;;;;4893954;28;20051;-63
2021/03/25 05:25:30;;;;;;;99.25;34.83;;;8.00;59.70;;;;;;4888831;28;20043;-62
2021/03/25 05:28:29;;;;;;;102.60;37.35;;;8.00;59.70;;;;;;4896432;28;20533;-62
2021/03/25 05:31:00;;;;;;;86.85;31.17;;;8.00;59.80;;;;;;4867885;28;20259;-64
2021/03/25 05:33:32;;;;;;;61.78;26.63;;;7.90;59.80;;;;;;4901139;28;23454;-62
2021/03/25 05:36:05;;;;;;;66.97;26.65;;;7.90;59.90;;;;;;4888933;28;20485;-63
2021/03/25 05:38:33;;;;;;;71.55;26.88;;;7.90;60.00;;;;;;4891549;28;21534;-63
2021/03/25 05:41:12;;;;;;;63.38;26.27;;;7.80;60.00;;;;;;4902083;28;20131;-62
2021/03/25 05:44:23;;;;;;;73.53;27.67;;;7.80;60.00;;;;;;4890029;28;20122;-62
2021/03/25 05:46:52;;;;;;;73.57;28.40;;;7.80;60.00;;;;;;4882925;28;20051;-63
2021/03/25 05:49:45;;;;;;;90.60;32.30;;;7.80;60.00;;;;;;4895132;28;20369;-62
2021/03/25 05:52:34;;;;;;;82.80;32.25;;;7.80;60.20;;;;;;4907150;28;20135;-63
2021/03/25 05:55:19;;;;;;;97.05;34.95;;;7.80;60.20;;;;;;4904598;28;20039;-63
2021/03/25 05:58:06;;;;;;;122.25;40.95;;;7.80;60.30;;;;;;4905549;28;20043;-62
2021/03/25 06:00:56;;;;;;;109.53;38.38;;;7.80;60.40;;;;;;4900916;28;20473;-63
2021/03/25 06:03:24;;;;;;;123.28;39.08;;;7.80;60.50;;;;;;4921403;28;20107;-63
2021/03/25 06:05:53;;;;;;;126.63;41.65;;;7.80;60.60;;;;;;4920719;28;20059;-62
2021/03/25 06:08:24;;;;;;;109.70;36.97;;;7.90;60.80;;;;;;4939355;28;20103;-62
2021/03/25 06:11:33;;;;;;;100.70;35.95;;;8.00;61.10;;;;;;4943976;28;20410;-63
2021/03/25 06:14:12;;;;;;;112.90;40.83;;;8.20;61.60;;;;;;4929160;28;20098;-63
2021/03/25 06:17:01;;;;;;;105.50;39.78;;;8.40;61.70;;;;;;4943740;28;20505;-62
2021/03/25 06:19:35;;;;;;;107.85;38.30;;;8.60;61.80;;;;;;4938333;28;20043;-63
2021/03/25 06:22:13;;;;;;;108.47;39.35;;;8.80;61.80;;;;;;4920797;28;20039;-63
2021/03/25 06:25:00;;;;;;;109.40;40.60;;;8.90;61.70;;;;;;4934140;28;20047;-62
2021/03/25 06:27:50;;;;;;;111.65;40.55;;;9.00;61.60;;;;;;4940443;28;20050;-62
2021/03/25 06:30:21;;;;;;;129.02;45.10;;;9.20;61.60;;;;;;4927478;28;20095;-62
2021/03/25 06:32:50;;;;;;;125.28;46.28;;;9.30;61.60;;;;;;4927377;28;20787;-63
2021/03/25 06:35:32;;;;;;;135.35;46.40;;;9.50;61.80;;;;;;4930804;28;20098;-65
2021/03/25 06:38:08;;;;;;;123.50;46.20;;;9.60;61.90;;;;;;4922559;28;20035;-64
2021/03/25 06:40:39;;;;;;;129.25;47.50;;;9.80;62.00;;;;;;4924777;28;20815;-63
2021/03/25 06:43:14;;;;;;;126.53;47.65;;;9.90;61.80;;;;;;4918039;28;20047;-63
2021/03/25 06:45:45;;;;;;;118.78;44.55;;;10.00;61.80;;;;;;4915972;28;20475;-63
2021/03/25 06:48:23;;;;;;;115.75;43.30;;;10.10;61.60;;;;;;4911256;28;20259;-62
2021/03/25 06:50:51;;;;;;;98.85;41.60;;;10.20;61.30;;;;;;4906924;28;20480;-63
2021/03/25 06:53:20;;;;;;;104.75;41.00;;;10.30;61.00;;;;;;4910460;28;20583;-63
2021/03/25 06:55:50;;;;;;;108.57;41.90;;;10.30;60.90;;;;;;4913508;28;20050;-63
2021/03/25 06:58:23;;;;;;;95.10;39.78;;;10.30;60.70;;;;;;4910293;28;20090;-63
2021/03/25 07:00:56;;;;;;;103.07;40.83;;;10.30;60.80;;;;;;4913882;28;20495;-62
2021/03/25 07:03:23;;;;;;;113.18;44.00;;;10.40;60.90;;;;;;4909757;28;20159;-63
2021/03/25 07:05:52;;;;;;;112.13;45.13;;;10.40;60.90;;;;;;4906272;28;20520;-63
2021/03/25 07:08:22;;;;;;;121.20;47.63;;;10.50;61.10;;;;;;4908842;28;20416;-62
2021/03/25 07:10:54;;;;;;;105.65;44.85;;;10.60;61.30;;;;;;4913167;28;22517;-64
2021/03/25 07:14:01;;;;;;;117.10;47.75;;;10.70;61.40;;;;;;4904662;28;20065;-63
2021/03/25 07:16:29;;;;;;;104.80;45.60;;;10.80;61.50;;;;;;4915281;28;20039;-63
2021/03/25 07:19:10;;;;;;;125.80;48.58;;;11.00;61.50;;;;;;4919797;28;20567;-62
2021/03/25 07:21:40;;;;;;;111.13;47.47;;;11.10;61.60;;;;;;4909554;28;20137;-62
2021/03/25 07:24:27;;;;;;;105.35;45.25;;;11.30;61.80;;;;;;4911388;28;20249;-62
2021/03/25 07:26:59;;;;;;;96.57;42.45;;;11.40;61.60;;;;;;4898479;28;20067;-62
2021/03/25 07:29:35;;;;;;;98.38;44.08;;;11.50;61.60;;;;;;4911474;28;20054;-63
2021/03/25 07:32:16;;;;;;;100.57;41.10;;;11.70;61.70;;;;;;4911397;28;20039;-63
2021/03/25 07:34:47;;;;;;;84.97;40.80;;;11.80;61.40;;;;;;4911614;28;20042;-63
2021/03/25 07:37:36;;;;;;;96.55;41.50;;;;;;;;;;4905979;28;20313;-63
2021/03/25 07:40:06;;;;;;;86.40;39.15;;;11.90;61.20;;;;;;4897465;28;20070;-63
2021/03/25 07:42:33;;;;;;;86.85;38.92;;;;;;;;;;4893488;28;20353;-63
2021/03/25 07:45:18;;;;;;;82.22;37.67;;;;;;;;;;4894578;28;20182;-63
2021/03/25 07:47:47;;;;;;;77.90;36.45;;;12.20;60.90;;;;;;4889751;28;20244;-63
2021/03/25 07:50:25;;;;;;;74.13;35.65;;;12.60;60.00;;;;;;4893908;28;20753;-63
2021/03/25 07:52:51;;;;;;;73.22;36.42;;;12.80;59.60;;;;;;4897508;28;20040;-63
2021/03/25 07:55:20;;;;;;;77.15;34.60;;;12.90;59.40;;;;;;4929816;28;20782;-62
2021/03/25 07:57:47;;;;;;;74.65;34.78;;;;;;;;;;4932173;28;20523;-63
2021/03/25 08:00:35;;;;;;;79.57;34.35;;;;;;;;;;4924663;28;20053;-64
2021/03/25 08:03:21;;;;;;;81.65;34.55;;;13.10;59.20;;;;;;4924273;28;20046;-64
2021/03/25 08:05:52;;;;;;;71.18;33.38;;;13.50;58.50;;;;;;4931904;28;20039;-63
2021/03/25 08:08:25;;;;;;;72.32;34.42;;;13.60;58.20;;;;;;4929571;28;20129;-63
2021/03/25 08:11:08;;;;;;;69.25;30.95;;;13.70;58.10;;;;;;4932499;28;20035;-63
2021/03/25 08:13:36;;;;;;;63.22;32.05;;;13.90;58.00;;;;;;4929851;28;20055;-63
2021/03/25 08:16:07;;;;;;;68.18;32.67;;;14.00;57.60;;;;;;4934004;28;20563;-63
2021/03/25 08:18:57;;;;;;;64.03;31.73;;;14.20;57.40;;;;;;4927657;28;20054;-63
2021/03/25 08:21:41;;;;;;;68.20;31.05;;;14.30;57.00;;;;;;4926507;28;20031;-63
2021/03/25 08:24:33;;;;;;;71.10;31.95;;;14.50;56.80;;;;;;4929466;28;20098;-64
2021/03/25 08:27:11;;;;;;;57.33;29.85;;;;;;;;;;4934525;28;20481;-63
2021/03/25 08:29:58;;;;;;;55.72;28.83;;;;;;;;;;4926691;28;20158;-63
2021/03/25 08:32:33;;;;;;;58.42;28.10;;;;;;;;;;4927719;28;20054;-63
2021/03/25 08:35:18;;;;;;;61.10;29.55;;;;;;;;;;4932370;28;20789;-63
2021/03/25 08:37:52;;;;;;;51.28;26.63;;;;;;;;;;4923415;28;20771;-63
2021/03/25 08:40:30;;;;;;;54.55;26.58;;;14.70;56.40;;;;;;4924643;28;21463;-63
2021/03/25 08:43:00;;;;;;;50.67;27.13;;;22.10;44.90;;;;;;4935542;28;20039;-63
2021/03/25 08:46:07;;;;;;;46.65;25.25;;;23.10;42.80;;;;;;4923044;28;20079;-64
2021/03/25 08:48:48;;;;;;;51.58;27.73;;;24.00;41.20;;;;;;4933982;28;20044;-64
2021/03/25 08:51:26;;;;;;;50.70;25.65;;;24.80;37.80;;;;;;4928286;28;20703;-64
2021/03/25 08:54:21;;;;;;;50.25;26.40;;;25.50;36.60;;;;;;4923995;28;20556;-64
2021/03/25 08:57:00;;;;;;;47.67;25.25;;;26.20;34.40;;;;;;4927822;28;21285;-64
2021/03/25 08:59:40;;;;;;;45.83;24.77;;;26.90;33.90;;;;;;4930011;28;20139;-64
2021/03/25 09:02:31;;;;;;;45.97;24.63;;;27.40;32.00;;;;;;4917676;28;20189;-64
2021/03/25 09:05:24;;;;;;;42.30;24.15;;;27.90;31.20;;;;;;4928400;28;20527;-64
2021/03/25 09:07:52;;;;;;;42.45;23.52;;;28.40;30.40;;;;;;4927321;28;20435;-64
2021/03/25 09:10:51;;;;;;;38.63;21.85;;;28.80;29.40;;;;;;4929089;28;20242;-64
2021/03/25 09:13:29;;;;;;;42.33;21.25;;;29.10;29.30;;;;;;4924873;28;20035;-64
2021/03/25 09:15:57;;;;;;;37.42;21.65;;;29.70;28.20;;;;;;4933740;28;20043;-64
2021/03/25 09:18:24;;;;;;;42.97;22.65;;;;;;;;;;4930740;28;20090;-64
2021/03/25 09:20:55;;;;;;;39.40;22.00;;;;;;;;;;4924051;28;20491;-64
2021/03/25 09:23:35;;;;;;;39.33;21.88;;;;;;;;;;4928710;28;20098;-64
2021/03/25 09:26:02;;;;;;;35.03;20.17;;;;;;;;;;4925214;28;20046;-64
2021/03/25 09:28:53;;;;;;;37.33;20.30;;;;;;;;;;4911798;28;20043;-64
2021/03/25 09:31:24;;;;;;;38.47;18.67;;;;;;;;;;4923430;28;20044;-64
2021/03/25 09:33:57;;;;;;;29.90;16.45;;;;;;;;;;4925523;28;20039;-64
2021/03/25 09:36:32;;;;;;;25.13;16.00;;;;;;;;;;4926362;28;20787;-65
2021/03/25 09:38:58;;;;;;;29.38;17.80;;;;;;;;;;4923391;28;20094;-65
2021/03/25 09:41:31;;;;;;;31.15;17.83;;;;;;;;;;4920947;28;20051;-65
2021/03/25 09:44:08;;;;;;;39.90;17.63;;;;;;;;;;4915379;28;20062;-65
2021/03/25 09:46:41;;;;;;;28.25;16.17;;;;;;;;;;4928031;28;20054;-64
2021/03/25 09:49:31;;;;;;;31.75;17.15;;;;;;;;;;4926881;28;20122;-64
2021/03/25 09:52:13;;;;;;;31.85;17.52;;;;;;;;;;4921604;28;20105;-64
2021/03/25 09:54:42;;;;;;;34.70;17.65;;;;;;;;;;4921859;28;20054;-64
2021/03/25 09:57:35;;;;;;;28.08;17.92;;;;;;;;;;4927115;28;20489;-64
2021/03/25 10:00:33;;;;;;;33.30;20.13;;;;;;;;;;4927946;28;20041;-64
2021/03/25 10:03:02;;;;;;;37.55;19.90;;;;;;;;;;4921723;28;20035;-65
2021/03/25 10:05:32;;;;;;;32.35;19.88;;;;;;;;;;4927050;28;20047;-64
2021/03/25 10:08:11;;;;;;;31.75;18.00;;;;;;;;;;4924061;28;24254;-64
2021/03/25 10:10:43;;;;;;;32.90;18.27;;;;;;;;;;4928268;28;20046;-64
2021/03/25 10:13:13;;;;;;;34.25;18.63;;;;;;;;;;4932258;28;20081;-64
2021/03/25 10:15:59;;;;;;;29.63;16.65;;;;;;;;;;4924317;28;20035;-64
2021/03/25 10:18:25;;;;;;;30.58;17.23;;;;;;;;;;4934200;28;20434;-64
2021/03/25 10:21:00;;;;;;;25.83;15.38;;;;;;;;;;4930089;28;20116;-64
2021/03/25 10:23:45;;;;;;;27.02;16.85;;;;;;;;;;4929743;28;20418;-64
2021/03/25 10:26:11;;;;;;;27.17;15.23;;;;;;;;;;4926022;28;20031;-65
2021/03/25 10:28:43;;;;;;;26.52;15.57;;;;;;;;;;4931443;28;20043;-64
2021/03/25 10:31:16;;;;;;;27.80;15.10;;;;;;;;;;4929018;28;20401;-64
2021/03/25 10:33:45;;;;;;;24.63;13.90;;;;;;;;;;4933062;28;20638;-64
2021/03/25 10:36:18;;;;;;;25.95;15.85;;;;;;;;;;4933623;28;20035;-64
2021/03/25 10:38:49;;;;;;;29.73;16.67;;;;;;;;;;4932687;28;20051;-64
2021/03/25 10:41:20;;;;;;;32.72;16.05;;;;;;;;;;4948805;28;20139;-64
2021/03/25 10:43:49;;;;;;;25.85;14.93;;;;;;;;;;4934759;28;20054;-66
2021/03/25 10:46:37;;;;;;;25.58;15.43;;;;;;;;;;4944996;28;20039;-64
2021/03/25 10:49:09;;;;;;;25.65;14.20;;;;;;;;;;4946079;28;20432;-64
2021/03/25 10:51:40;;;;;;;20.15;13.23;;;;;;;;;;4933107;28;20699;-64
2021/03/25 10:54:11;;;;;;;26.13;14.32;;;;;;;;;;4939742;28;20050;-65
2021/03/25 10:56:38;;;;;;;20.40;11.70;;;;;;;;;;4946879;28;20040;-64
2021/03/25 10:59:12;;;;;;;23.65;14.13;;;30.20;27.60;;;;;;4952655;28;20042;-64
2021/03/25 11:01:58;;;;;;;28.58;15.60;;;33.90;21.20;;;;;;4937317;28;20039;-64
2021/03/25 11:04:34;;;;;;;27.10;14.18;;;;;;;;;;4939764;28;20047;-64
2021/03/25 11:07:23;;;;;;;24.83;13.35;;;33.40;21.50;;;;;;4946556;28;20543;-64
2021/03/25 11:09:56;;;;;;;21.98;13.43;;;;;;;;;;4942787;28;20043;-64
2021/03/25 11:12:27;;;;;;;26.55;13.98;;;30.90;22.50;;;;;;4938673;28;20144;-64
2021/03/25 11:14:58;;;;;;;29.65;15.68;;;;;;;;;;4942492;28;20038;-64
2021/03/25 11:17:27;;;;;;;22.27;13.35;;;28.30;25.70;;;;;;4932496;28;20035;-64
2021/03/25 11:19:59;;;;;;;27.60;14.52;;;26.60;27.20;;;;;;4924655;28;20051;-64
2021/03/25 11:22:25;;;;;;;25.67;14.30;;;;;;;;;;4924406;28;20529;-63
2021/03/25 11:24:53;;;;;;;28.20;14.63;;;;;;;;;;4919667;28;20040;-64
2021/03/25 11:27:25;;;;;;;30.70;14.00;;;;;;;;;;4923732;28;20101;-64
2021/03/25 11:30:06;;;;;;;20.88;11.25;;;;;;;;;;4906186;28;20572;-64
2021/03/25 11:32:37;;;;;;;20.50;12.05;;;;;;;;;;4909156;28;20039;-63
2021/03/25 11:35:20;;;;;;;24.27;13.30;;;;;;;;;;4922579;28;20238;-64
2021/03/25 11:37:49;;;;;;;31.23;14.82;;;;;;;;;;4915175;28;20039;-63
2021/03/25 11:40:22;;;;;;;27.20;15.15;;;;;;;;;;4921581;28;20165;-63
2021/03/25 11:42:48;;;;;;;31.95;15.20;;;;;;;;;;4922636;28;20046;-63
2021/03/25 11:45:47;;;;;;;28.25;15.48;;;;;;;;;;4923360;28;20130;-63
2021/03/25 11:48:24;;;;;;;27.58;14.27;;;;;;;;;;4900984;28;20098;-62
2021/03/25 11:50:52;;;;;;;27.88;14.18;;;;;;;;;;4925247;28;20568;-64
2021/03/25 11:53:37;;;;;;;29.15;15.05;;;;;;;;;;4926377;28;20192;-64
2021/03/25 11:56:06;;;;;;;33.30;14.52;;;;;;;;;;4930596;28;20036;-63
2021/03/25 11:58:35;;;;;;;29.33;14.18;;;;;;;;;;4929500;28;20090;-63
2021/03/25 12:01:16;;;;;;;25.05;12.93;;;;;;;;;;4914943;28;20054;-64
2021/03/25 12:03:50;;;;;;;19.85;10.88;;;;;;;;;;4922372;28;20465;-64
2021/03/25 12:06:22;;;;;;;27.00;11.23;;;26.00;27.10;;;;;;4924883;28;20134;-64
2021/03/25 12:08:49;;;;;;;22.98;11.63;;;;;;;;;;4923202;28;20548;-64
2021/03/25 12:11:15;;;;;;;27.77;12.93;;;;;;;;;;4920170;28;20505;-63
2021/03/25 12:13:45;;;;;;;25.25;10.68;;;;;;;;;;4927692;28;20138;-63
2021/03/25 12:16:13;;;;;;;20.27;11.38;;;;;;;;;;4926842;28;20572;-64
2021/03/25 12:18:48;;;;;;;21.05;10.90;;;;;;;;;;4904226;28;20055;-63
2021/03/25 12:21:14;;;;;;;26.42;11.40;;;;;;;;;;4894280;28;21142;-64
2021/03/25 12:23:43;;;;;;;18.42;11.02;;;;;;;;;;4897802;28;20047;-63
2021/03/25 12:26:12;;;;;;;19.65;9.82;;;;;;;;;;4917864;28;20457;-64
2021/03/25 12:28:38;;;;;;;23.50;11.05;;;;;;;;;;4931802;28;20038;-64
2021/03/25 12:31:07;;;;;;;24.70;11.68;;;;;;;;;;4921797;28;20089;-63
2021/03/25 12:33:35;;;;;;;21.00;11.60;;;;;;;;;;4924631;28;20417;-63
2021/03/25 12:36:01;;;;;;;18.45;10.00;;;;;;;;;;4922854;28;20050;-66
2021/03/25 12:38:28;;;;;;;17.08;8.25;;;;;;;;;;4920292;28;20058;-64
2021/03/25 12:40:54;;;;;;;20.10;8.88;;;;;;;;;;4919415;28;20523;-64
2021/03/25 12:43:24;;;;;;;24.30;9.43;;;;;;;;;;4927116;28;20043;-63
2021/03/25 12:45:53;;;;;;;18.65;9.25;;;;;;;;;;4922182;28;20039;-63
2021/03/25 12:48:20;;;;;;;19.25;9.88;;;;;;;;;;4923379;28;20508;-63
2021/03/25 12:50:49;;;;;;;20.75;9.73;;;;;;;;;;4922525;28;20447;-64
2021/03/25 12:53:15;;;;;;;24.27;10.05;;;;;;;;;;4926286;28;20047;-63
2021/03/25 12:55:41;;;;;;;19.63;10.15;;;;;;;;;;4928891;28;20813;-63
2021/03/25 12:58:12;;;;;;;17.48;9.35;;;;;;;;;;4931587;28;20031;-63
2021/03/25 13:00:40;;;;;;;18.15;8.45;;;;;;;;;;4918928;28;20047;-63
2021/03/25 13:03:07;;;;;;;19.50;8.77;;;;;;;;;;4926148;28;20533;-64
2021/03/25 13:05:35;;;;;;;16.48;8.88;;;;;;;;;;4925023;28;20506;-64
2021/03/25 13:08:01;;;;;;;18.65;8.93;;;;;;;;;;4920959;28;20070;-64
2021/03/25 13:10:29;;;;;;;18.30;8.63;;;;;;;;;;4927099;28;20745;-63
2021/03/25 13:12:55;;;;;;;17.63;8.18;;;;;;;;;;4929159;28;20387;-63
2021/03/25 13:15:22;;;;;;;13.45;8.38;;;;;;;;;;4924629;28;20043;-64
2021/03/25 13:17:48;;;;;;;16.27;8.85;;;;;;;;;;4929348;28;20122;-64
2021/03/25 13:20:18;;;;;;;15.25;8.98;;;;;;;;;;4925979;28;20051;-63
2021/03/25 13:22:46;;;;;;;16.48;8.73;;;;;;;;;;4932401;28;20551;-64
2021/03/25 13:25:15;;;;;;;17.10;8.93;;;;;;;;;;4928457;28;20398;-63
2021/03/25 13:27:41;;;;;;;15.27;7.97;;;;;;;;;;4928321;28;20046;-63
2021/03/25 13:30:08;;;;;;;20.25;8.05;;;;;;;;;;4926573;28;20080;-64
2021/03/25 13:32:34;;;;;;;15.20;7.80;;;;;;;;;;4919477;28;20048;-63
2021/03/25 13:35:00;;;;;;;14.32;7.65;;;;;;;;;;4931088;28;20042;-64
2021/03/25 13:37:30;;;;;;;12.45;7.40;;;;;;;;;;4942427;28;20988;-64
2021/03/25 13:39:56;;;;;;;14.35;7.38;;;;;;;;;;4932790;28;20786;-64
2021/03/25 13:42:22;;;;;;;16.88;7.63;;;;;;;;;;4930235;28;20384;-63
2021/03/25 13:44:48;;;;;;;14.13;7.82;;;;;;;;;;4933151;28;20501;-64